createdAt,value
2022-12-27T00:02:19.149Z,1.67
2022-12-27T00:04:46.422Z,2.07
2022-12-27T00:07:13.267Z,3.23
2022-12-27T00:09:40.079Z,2.33
2022-12-27T00:12:07.333Z,1.27
2022-12-27T00:14:34.092Z,1.67
2022-12-27T00:17:00.823Z,1.83
2022-12-27T00:19:27.552Z,2.17
2022-12-27T00:21:54.803Z,2.07
2022-12-27T00:24:21.572Z,1.30
2022-12-27T00:26:49.647Z,3.50
2022-12-27T00:29:16.493Z,1.20
2022-12-27T00:31:43.408Z,1.27
2022-12-27T00:34:10.729Z,2.57
2022-12-27T00:36:37.692Z,1.50
2022-12-27T00:39:04.562Z,1.53
2022-12-27T00:41:31.823Z,3.00
2022-12-27T00:43:58.697Z,2.30
2022-12-27T00:46:25.415Z,2.23
2022-12-27T00:48:52.320Z,2.53
2022-12-27T00:51:24.590Z,2.13
2022-12-27T00:53:53.374Z,1.40
2022-12-27T00:56:26.944Z,1.13
2022-12-27T00:58:55.319Z,2.63
2022-12-27T01:01:24.509Z,2.87
2022-12-27T01:03:51.572Z,2.07
2022-12-27T01:06:21.617Z,2.40
2022-12-27T01:08:48.944Z,1.07
2022-12-27T01:11:17.966Z,1.10
2022-12-27T01:13:45.012Z,1.70
2022-12-27T01:16:20.652Z,2.70
2022-12-27T01:18:48.819Z,1.67
2022-12-27T01:21:18.272Z,2.07
2022-12-27T01:23:45.479Z,1.60
2022-12-27T01:26:18.139Z,1.30
2022-12-27T01:28:45.829Z,1.73
2022-12-27T01:31:18.172Z,3.30
2022-12-27T01:33:45.380Z,1.20
2022-12-27T01:36:14.041Z,2.13
2022-12-27T01:38:44.318Z,1.77
2022-12-27T01:41:43.315Z,2.47
2022-12-27T01:44:49.574Z,2.07
2022-12-27T01:47:38.473Z,3.73
2022-12-27T01:50:08.338Z,1.50
2022-12-27T01:52:40.202Z,1.43
2022-12-27T01:55:14.095Z,1.27
2022-12-27T01:57:41.627Z,1.43
2022-12-27T02:00:09.196Z,1.13
2022-12-27T02:02:36.606Z,1.67
2022-12-27T02:05:03.725Z,1.60
2022-12-27T02:07:59.137Z,1.53
2022-12-27T02:10:27.783Z,1.70
2022-12-27T02:12:54.875Z,2.63
2022-12-27T02:15:21.653Z,4.77
2022-12-27T02:17:48.459Z,1.53
2022-12-27T02:20:22.635Z,1.00
2022-12-27T02:23:20.127Z,2.10
2022-12-27T02:26:11.452Z,2.63
2022-12-27T02:28:59.812Z,2.07
2022-12-27T02:31:41.207Z,2.00
2022-12-27T02:34:28.810Z,1.30
2022-12-27T02:37:04.745Z,3.77
2022-12-27T02:39:36.359Z,1.80
2022-12-27T02:42:22.746Z,1.70
2022-12-27T02:45:08.189Z,2.63
2022-12-27T02:47:53.995Z,1.10
2022-12-27T02:50:39.662Z,1.27
2022-12-27T02:53:23.994Z,1.60
2022-12-27T02:56:46.277Z,1.40
2022-12-27T02:59:21.677Z,4.33
2022-12-27T03:02:22.377Z,1.90
2022-12-27T03:05:10.499Z,1.80
2022-12-27T03:08:01.271Z,1.30
2022-12-27T03:11:02.709Z,4.00
2022-12-27T03:14:12.507Z,1.17
2022-12-27T03:16:58.249Z,1.00
2022-12-27T03:19:48.714Z,1.67
2022-12-27T03:22:35.433Z,4.00
2022-12-27T03:25:23.185Z,0.90
2022-12-27T03:28:12.306Z,2.20
2022-12-27T03:30:58.876Z,2.13
2022-12-27T03:33:27.945Z,1.80
2022-12-27T03:36:28.881Z,6.20
2022-12-27T03:39:09.161Z,2.00
2022-12-27T03:42:01.255Z,3.10
2022-12-27T03:44:28.292Z,1.50
2022-12-27T03:47:00.935Z,1.43
2022-12-27T03:49:40.289Z,1.83
2022-12-27T03:52:09.404Z,3.53
2022-12-27T03:54:45.414Z,1.47
2022-12-27T03:57:15.528Z,2.23
2022-12-27T03:59:42.344Z,1.80
2022-12-27T04:02:09.587Z,1.27
2022-12-27T04:04:36.657Z,6.17
2022-12-27T04:07:04.383Z,2.50
2022-12-27T04:09:50.332Z,3.33
2022-12-27T04:12:35.636Z,0.83
2022-12-27T04:15:21.494Z,1.33
2022-12-27T04:18:06.987Z,2.07
2022-12-27T04:20:52.640Z,3.00
2022-12-27T04:23:38.162Z,2.03
2022-12-27T04:26:23.305Z,2.33
2022-12-27T04:29:08.784Z,2.00
2022-12-27T04:31:54.384Z,1.40
2022-12-27T04:34:39.642Z,1.43
2022-12-27T04:37:06.810Z,1.50
2022-12-27T04:39:33.599Z,1.57
2022-12-27T04:42:19.130Z,3.20
2022-12-27T04:45:11.660Z,2.47
2022-12-27T04:48:00.219Z,5.00
2022-12-27T04:50:48.281Z,2.57
2022-12-27T04:53:39.613Z,2.93
2022-12-27T04:56:07.480Z,3.60
2022-12-27T04:58:35.115Z,2.27
2022-12-27T05:01:22.654Z,2.87
2022-12-27T05:03:52.017Z,4.07
2022-12-27T05:06:19.180Z,3.40
2022-12-27T05:09:04.466Z,3.50
2022-12-27T05:11:50.127Z,3.93
2022-12-27T05:14:17.006Z,3.30
2022-12-27T05:16:44.739Z,5.43
2022-12-27T05:19:14.190Z,3.60
2022-12-27T05:22:05.147Z,2.20
2022-12-27T05:24:51.522Z,1.70
2022-12-27T05:27:18.607Z,2.27
2022-12-27T05:29:46.333Z,2.77
2022-12-27T05:32:13.919Z,3.03
2022-12-27T05:34:41.186Z,1.83
2022-12-27T05:37:08.221Z,2.07
2022-12-27T05:39:34.979Z,2.40
2022-12-27T05:42:02.104Z,1.30
2022-12-27T05:44:29.013Z,2.93
2022-12-27T05:46:55.945Z,1.67
2022-12-27T05:49:22.824Z,1.87
2022-12-27T05:51:49.573Z,1.90
2022-12-27T05:54:16.295Z,1.83
2022-12-27T05:56:43.094Z,2.70
2022-12-27T05:59:09.997Z,1.83
2022-12-27T06:01:36.859Z,1.20
2022-12-27T06:04:03.749Z,2.53
2022-12-27T06:06:30.541Z,1.80
2022-12-27T06:08:57.282Z,2.47
2022-12-27T06:11:24.453Z,1.27
2022-12-27T06:13:53.491Z,2.37
2022-12-27T06:16:21.724Z,2.03
2022-12-27T06:18:48.659Z,1.50
2022-12-27T06:21:19.257Z,1.93
2022-12-27T06:23:47.040Z,1.67
2022-12-27T06:26:19.017Z,1.50
2022-12-27T06:28:46.128Z,3.97
2022-12-27T06:31:13.028Z,4.07
2022-12-27T06:33:39.909Z,4.30
2022-12-27T06:36:12.935Z,3.27
2022-12-27T06:38:40.543Z,3.77
2022-12-27T06:41:10.324Z,3.90
2022-12-27T06:43:37.781Z,6.20
2022-12-27T06:46:12.398Z,3.77
2022-12-27T06:48:44.783Z,5.30
2022-12-27T06:51:13.135Z,4.60
2022-12-27T06:53:40.421Z,3.57
2022-12-27T06:56:09.693Z,10.80
2022-12-27T06:58:36.588Z,15.67
2022-12-27T07:01:16.548Z,9.57
2022-12-27T07:03:43.461Z,9.63
2022-12-27T07:06:11.832Z,6.80
2022-12-27T07:08:39.759Z,6.63
2022-12-27T07:11:08.885Z,6.83
2022-12-27T07:13:37.975Z,7.43
2022-12-27T07:16:10.087Z,4.73
2022-12-27T07:18:37.386Z,3.10
2022-12-27T07:21:12.601Z,3.37
2022-12-27T07:23:39.951Z,2.43
2022-12-27T07:26:16.619Z,3.47
2022-12-27T07:28:44.183Z,4.70
2022-12-27T07:31:14.076Z,2.60
2022-12-27T07:33:41.621Z,1.80
2022-12-27T07:36:12.852Z,1.60
2022-12-27T07:38:40.049Z,1.43
2022-12-27T07:41:06.822Z,3.63
2022-12-27T07:43:34.943Z,2.13
2022-12-27T07:46:22.151Z,2.53
2022-12-27T07:48:49.146Z,6.27
2022-12-27T07:51:17.160Z,1.87
2022-12-27T07:53:44.587Z,3.07
2022-12-27T07:56:26.131Z,1.77
2022-12-27T07:58:55.862Z,1.53
2022-12-27T08:01:24.765Z,3.07
2022-12-27T08:03:51.844Z,2.77
2022-12-27T08:06:24.609Z,3.87
2022-12-27T08:08:52.891Z,2.20
2022-12-27T08:11:20.537Z,2.67
2022-12-27T08:13:47.855Z,2.80
2022-12-27T08:16:20.645Z,4.40
2022-12-27T08:18:47.974Z,2.47
2022-12-27T08:21:15.917Z,2.50
2022-12-27T08:23:42.900Z,4.63
2022-12-27T08:26:10.043Z,3.40
2022-12-27T08:28:36.931Z,2.27
2022-12-27T08:31:08.277Z,3.83
2022-12-27T08:33:35.583Z,3.13
2022-12-27T08:36:53.290Z,4.40
2022-12-27T08:38:55.671Z,3.83
2022-12-27T08:41:22.811Z,5.90
2022-12-27T08:43:49.955Z,4.87
2022-12-27T08:46:18.777Z,4.00
2022-12-27T08:48:48.702Z,5.90
2022-12-27T08:51:23.451Z,4.90
2022-12-27T08:53:56.995Z,5.40
2022-12-27T08:56:23.767Z,2.83
2022-12-27T08:58:50.559Z,4.43
2022-12-27T09:01:18.140Z,2.97
2022-12-27T09:03:44.995Z,1.70
2022-12-27T09:06:15.703Z,1.67
2022-12-27T09:08:47.093Z,2.93
2022-12-27T09:11:20.673Z,2.53
2022-12-27T09:13:47.765Z,4.60
2022-12-27T09:16:16.952Z,2.27
2022-12-27T09:18:44.291Z,2.40
2022-12-27T09:21:13.797Z,3.70
2022-12-27T09:23:41.526Z,2.77
2022-12-27T09:26:13.739Z,2.20
2022-12-27T09:28:41.523Z,3.57
2022-12-27T09:31:10.258Z,2.97
2022-12-27T09:33:37.661Z,2.20
2022-12-27T09:36:07.233Z,2.77
2022-12-27T09:38:34.555Z,2.20
2022-12-27T09:41:05.869Z,6.00
2022-12-27T09:43:44.123Z,3.90
2022-12-27T09:46:22.199Z,3.17
2022-12-27T09:48:50.569Z,2.37
2022-12-27T09:51:26.683Z,2.07
2022-12-27T09:54:17.933Z,2.63
2022-12-27T09:57:18.355Z,2.07
2022-12-27T09:59:41.150Z,2.57
2022-12-27T10:02:25.800Z,2.10
2022-12-27T10:05:19.924Z,1.90
2022-12-27T10:08:05.973Z,3.03
2022-12-27T10:10:58.300Z,3.10
2022-12-27T10:13:49.499Z,3.07
2022-12-27T10:16:31.599Z,2.53
2022-12-27T10:19:33.910Z,2.47
2022-12-27T10:22:12.460Z,2.43
2022-12-27T10:24:51.574Z,3.70
2022-12-27T10:27:23.152Z,4.10
2022-12-27T10:29:53.861Z,7.17
2022-12-27T10:32:20.907Z,9.33
2022-12-27T10:34:56.628Z,21.03
2022-12-27T10:37:23.903Z,14.10
2022-12-27T10:39:51.632Z,10.30
2022-12-27T10:42:47.347Z,9.93
2022-12-27T10:45:29.793Z,10.87
2022-12-27T10:48:10.123Z,8.07
2022-12-27T10:50:37.687Z,9.17
2022-12-27T10:53:04.576Z,7.20
2022-12-27T10:55:35.416Z,6.23
2022-12-27T10:58:25.718Z,5.10
2022-12-27T11:00:57.625Z,6.40
2022-12-27T11:03:26.224Z,4.50
2022-12-27T11:06:07.231Z,3.47
2022-12-27T11:08:34.096Z,6.50
2022-12-27T11:11:27.062Z,2.53
2022-12-27T11:14:11.238Z,4.20
2022-12-27T11:16:41.060Z,3.23
2022-12-27T11:19:22.572Z,6.23
2022-12-27T11:21:50.044Z,7.77
2022-12-27T11:24:20.284Z,5.40
2022-12-27T11:26:58.094Z,7.83
2022-12-27T11:29:27.539Z,4.43
2022-12-27T11:31:55.218Z,4.13
2022-12-27T11:34:37.441Z,6.23
2022-12-27T11:37:14.414Z,5.30
2022-12-27T11:39:47.306Z,6.40
2022-12-27T11:42:39.158Z,4.07
2022-12-27T11:45:19.678Z,3.37
2022-12-27T11:48:12.876Z,5.20
2022-12-27T11:51:29.966Z,5.13
2022-12-27T11:54:04.129Z,2.53
2022-12-27T11:56:34.958Z,4.80
2022-12-27T11:59:30.782Z,4.13
2022-12-27T12:02:25.873Z,4.90
2022-12-27T12:04:55.640Z,5.00
2022-12-27T12:07:37.535Z,5.33
2022-12-27T12:10:35.386Z,5.57
2022-12-27T12:13:28.817Z,3.90
2022-12-27T12:16:16.701Z,3.83
2022-12-27T12:19:11.051Z,4.83
2022-12-27T12:22:15.972Z,4.90
2022-12-27T12:25:00.704Z,3.67
2022-12-27T12:27:35.034Z,2.43
2022-12-27T12:30:11.781Z,4.43
2022-12-27T12:32:57.910Z,2.27
2022-12-27T12:35:53.441Z,3.23
2022-12-27T12:38:22.965Z,3.33
2022-12-27T12:41:04.736Z,3.03
2022-12-27T12:43:49.945Z,5.10
2022-12-27T12:46:34.149Z,5.13
2022-12-27T12:49:22.852Z,5.27
2022-12-27T12:52:14.170Z,9.33
2022-12-27T12:54:56.837Z,4.97
2022-12-27T12:57:48.164Z,3.93
2022-12-27T13:00:36.317Z,3.77
2022-12-27T13:03:48.239Z,5.73
2022-12-27T13:06:37.897Z,4.63
2022-12-27T13:09:16.944Z,6.63
2022-12-27T13:12:12.037Z,5.03
2022-12-27T13:14:57.002Z,7.77
2022-12-27T13:17:40.481Z,5.87
2022-12-27T13:20:37.326Z,7.27
2022-12-27T13:23:38.383Z,6.40
2022-12-27T13:26:25.399Z,8.87
2022-12-27T13:29:10.883Z,5.40
2022-12-27T13:32:04.696Z,5.97
2022-12-27T13:34:48.523Z,5.17
2022-12-27T13:37:21.351Z,5.90
2022-12-27T13:39:54.312Z,6.37
2022-12-27T13:42:59.140Z,4.47
2022-12-27T13:45:43.108Z,6.10
2022-12-27T13:48:39.740Z,5.10
2022-12-27T13:51:44.188Z,3.83
2022-12-27T13:54:35.306Z,5.33
2022-12-27T13:57:24.755Z,3.80
2022-12-27T14:00:17.256Z,4.20
2022-12-27T14:02:56.090Z,3.37
2022-12-27T14:05:35.492Z,4.40
2022-12-27T14:08:41.436Z,3.20
2022-12-27T14:11:42.468Z,5.10
2022-12-27T14:14:13.882Z,4.67
2022-12-27T14:16:59.699Z,3.67
2022-12-27T14:19:51.185Z,6.80
2022-12-27T14:22:34.097Z,3.90
2022-12-27T14:25:32.487Z,4.40
2022-12-27T14:28:26.976Z,8.87
2022-12-27T14:30:59.578Z,8.97
2022-12-27T14:33:58.173Z,24.10
2022-12-27T14:36:27.918Z,66.00
2022-12-27T14:39:03.668Z,73.70
2022-12-27T14:42:04.361Z,74.33
2022-12-27T14:44:49.971Z,40.80
2022-12-27T14:47:45.511Z,27.43
2022-12-27T14:50:43.223Z,27.13
2022-12-27T14:53:21.445Z,20.33
2022-12-27T14:55:48.180Z,15.90
2022-12-27T14:58:26.321Z,10.73
2022-12-27T15:00:59.245Z,14.07
2022-12-27T15:03:44.210Z,9.93
2022-12-27T15:06:48.478Z,8.87
2022-12-27T15:09:53.837Z,10.67
2022-12-27T15:12:45.802Z,7.87
2022-12-27T15:15:35.935Z,5.67
2022-12-27T15:18:02.760Z,5.77
2022-12-27T15:20:29.541Z,5.77
2022-12-27T15:23:12.206Z,6.33
2022-12-27T15:26:00.846Z,4.93
2022-12-27T15:28:40.120Z,6.17
2022-12-27T15:31:14.751Z,4.07
2022-12-27T15:33:53.471Z,5.23
2022-12-27T15:36:35.553Z,5.10
2022-12-27T15:39:02.817Z,5.90
2022-12-27T15:41:50.866Z,6.53
2022-12-27T15:44:17.676Z,7.43
2022-12-27T15:47:09.508Z,6.83
2022-12-27T15:49:55.160Z,6.40
2022-12-27T15:52:25.006Z,5.20
2022-12-27T15:55:29.769Z,6.57
2022-12-27T15:58:15.726Z,6.83
2022-12-27T16:00:44.470Z,7.03
2022-12-27T16:03:36.161Z,5.87
2022-12-27T16:06:05.125Z,7.87
2022-12-27T16:08:35.075Z,7.87
2022-12-27T16:11:12.906Z,6.57
2022-12-27T16:13:48.512Z,6.27
2022-12-27T16:16:27.905Z,5.37
2022-12-27T16:19:16.366Z,5.77
2022-12-27T16:21:46.249Z,3.93
2022-12-27T16:24:20.583Z,3.73
2022-12-27T16:26:57.935Z,7.00
2022-12-27T16:29:29.545Z,4.87
2022-12-27T16:32:13.062Z,3.40
2022-12-27T16:34:42.006Z,4.80
2022-12-27T16:37:45.379Z,3.67
2022-12-27T16:40:21.469Z,4.10
2022-12-27T16:42:54.437Z,3.10
2022-12-27T16:45:39.485Z,4.23
2022-12-27T16:48:43.759Z,6.30
2022-12-27T16:51:27.755Z,3.57
2022-12-27T16:54:22.057Z,6.93
2022-12-27T16:56:49.275Z,5.10
2022-12-27T16:59:53.531Z,3.80
2022-12-27T17:02:38.904Z,3.67
2022-12-27T17:05:16.174Z,5.00
2022-12-27T17:07:57.821Z,3.23
2022-12-27T17:10:27.769Z,5.60
2022-12-27T17:13:01.084Z,3.93
2022-12-27T17:15:28.735Z,2.93
2022-12-27T17:17:59.558Z,4.93
2022-12-27T17:20:26.548Z,5.17
2022-12-27T17:22:57.142Z,5.53
2022-12-27T17:25:37.028Z,6.40
2022-12-27T17:28:06.835Z,4.50
2022-12-27T17:30:48.985Z,4.83
2022-12-27T17:34:00.456Z,5.30
2022-12-27T17:36:53.610Z,5.83
2022-12-27T17:39:50.424Z,6.33
2022-12-27T17:42:46.485Z,3.87
2022-12-27T17:45:31.331Z,5.13
2022-12-27T17:48:14.629Z,5.90
2022-12-27T17:50:44.455Z,4.63
2022-12-27T17:53:37.533Z,4.37
2022-12-27T17:56:41.594Z,4.73
2022-12-27T17:59:13.303Z,4.30
2022-12-27T18:01:49.035Z,3.63
2022-12-27T18:04:24.463Z,2.33
2022-12-27T18:06:56.293Z,3.73
2022-12-27T18:09:43.975Z,2.47
2022-12-27T18:12:34.545Z,1.63
2022-12-27T18:15:09.097Z,2.57
2022-12-27T18:17:42.419Z,2.27
2022-12-27T18:20:28.430Z,3.30
2022-12-27T18:23:01.337Z,3.13
2022-12-27T18:25:33.871Z,5.30
2022-12-27T18:28:02.947Z,3.13
2022-12-27T18:30:36.533Z,2.30
2022-12-27T18:33:04.160Z,3.57
2022-12-27T18:35:31.399Z,2.67
2022-12-27T18:37:58.335Z,3.53
2022-12-27T18:40:26.331Z,3.43
2022-12-27T18:42:53.394Z,2.87
2022-12-27T18:45:26.777Z,3.10
2022-12-27T18:47:56.487Z,4.97
2022-12-27T18:50:27.048Z,4.00
2022-12-27T18:53:01.715Z,3.10
2022-12-27T18:55:29.028Z,4.67
2022-12-27T18:58:05.753Z,4.33
2022-12-27T19:00:32.862Z,3.87
2022-12-27T19:03:15.185Z,3.03
2022-12-27T19:06:01.988Z,2.97
2022-12-27T19:08:51.309Z,2.77
2022-12-27T19:11:24.615Z,2.50
2022-12-27T19:13:54.902Z,2.37
2022-12-27T19:16:26.476Z,5.77
2022-12-27T19:18:56.344Z,3.30
2022-12-27T19:21:36.365Z,2.57
2022-12-27T19:24:39.135Z,2.63
2022-12-27T19:27:23.117Z,2.77
2022-12-27T19:29:51.579Z,2.30
2022-12-27T19:32:47.553Z,2.20
2022-12-27T19:35:14.898Z,2.20
2022-12-27T19:37:41.716Z,2.07
2022-12-27T19:40:14.564Z,2.83
2022-12-27T19:42:41.586Z,2.47
2022-12-27T19:45:15.271Z,1.33
2022-12-27T19:47:42.235Z,2.40
2022-12-27T19:50:11.105Z,2.47
2022-12-27T19:52:39.534Z,2.27
2022-12-27T19:55:09.721Z,2.00
2022-12-27T19:57:36.600Z,1.80
2022-12-27T20:00:12.160Z,2.80
2022-12-27T20:02:39.627Z,3.40
2022-12-27T20:05:07.188Z,3.10
2022-12-27T20:07:34.085Z,1.73
2022-12-27T20:10:00.962Z,2.30
2022-12-27T20:12:27.766Z,3.80
2022-12-27T20:14:54.714Z,3.27
2022-12-27T20:17:21.539Z,3.67
2022-12-27T20:19:48.521Z,3.90
2022-12-27T20:22:15.346Z,5.10
2022-12-27T20:24:42.194Z,3.20
2022-12-27T20:27:09.070Z,4.00
2022-12-27T20:29:35.973Z,6.73
2022-12-27T20:32:03.026Z,8.50
2022-12-27T20:34:30.023Z,6.00
2022-12-27T20:36:58.205Z,6.40
2022-12-27T20:39:25.029Z,6.57
2022-12-27T20:41:51.849Z,5.27
2022-12-27T20:44:19.365Z,4.17
2022-12-27T20:46:47.617Z,3.37
2022-12-27T20:49:14.506Z,6.50
2022-12-27T20:51:41.852Z,4.97
2022-12-27T20:54:13.293Z,5.53
2022-12-27T20:56:40.135Z,10.10
2022-12-27T20:59:07.194Z,16.77
2022-12-27T21:01:34.112Z,74.33
2022-12-27T21:04:01.117Z,61.40
2022-12-27T21:06:29.015Z,82.90
2022-12-27T21:08:58.229Z,71.17
2022-12-27T21:11:32.694Z,52.60
2022-12-27T21:14:04.528Z,37.73
2022-12-27T21:16:33.506Z,30.83
2022-12-27T21:19:04.779Z,31.50
2022-12-27T21:21:35.221Z,35.70
2022-12-27T21:24:03.087Z,31.43
2022-12-27T21:26:32.024Z,31.83
2022-12-27T21:29:00.160Z,33.23
2022-12-27T21:31:27.919Z,81.30
2022-12-27T21:33:55.128Z,103.57
2022-12-27T21:36:24.740Z,102.00
2022-12-27T21:38:53.022Z,83.27
2022-12-27T21:41:25.673Z,50.70
2022-12-27T21:43:53.388Z,40.40
2022-12-27T21:46:23.347Z,24.60
2022-12-27T21:49:04.657Z,18.17
2022-12-27T21:51:32.794Z,15.03
2022-12-27T21:54:00.168Z,7.73
2022-12-27T21:56:27.505Z,7.03
2022-12-27T21:58:57.597Z,14.37
2022-12-27T22:01:27.130Z,14.93
2022-12-27T22:03:56.008Z,14.57
2022-12-27T22:06:26.203Z,26.67
2022-12-27T22:08:56.218Z,17.40
2022-12-27T22:11:24.043Z,35.73
2022-12-27T22:13:51.140Z,24.93
2022-12-27T22:16:20.885Z,24.00
2022-12-27T22:18:48.743Z,19.73
2022-12-27T22:21:18.755Z,16.47
2022-12-27T22:23:48.560Z,17.30
2022-12-27T22:26:18.159Z,12.67
2022-12-27T22:28:45.448Z,9.27
2022-12-27T22:31:15.555Z,9.33
2022-12-27T22:33:42.745Z,8.87
2022-12-27T22:36:13.821Z,10.97
2022-12-27T22:38:40.901Z,10.03
2022-12-27T22:41:11.403Z,8.73
2022-12-27T22:43:38.729Z,6.50
2022-12-27T22:46:08.021Z,7.37
2022-12-27T22:48:35.913Z,5.17
2022-12-27T22:51:11.987Z,5.13
2022-12-27T22:53:39.409Z,6.43
2022-12-27T22:56:22.520Z,5.50
2022-12-27T22:58:49.945Z,6.10
2022-12-27T23:01:29.152Z,4.80
2022-12-27T23:03:57.928Z,6.07
2022-12-27T23:06:26.240Z,5.37
2022-12-27T23:08:53.532Z,6.23
2022-12-27T23:11:27.386Z,6.87
2022-12-27T23:13:59.912Z,8.07
2022-12-27T23:16:27.707Z,9.40
2022-12-27T23:18:54.710Z,10.60
2022-12-27T23:21:23.888Z,14.30
2022-12-27T23:23:52.208Z,14.90
2022-12-27T23:26:21.560Z,15.03
2022-12-27T23:28:49.654Z,17.73
2022-12-27T23:31:18.084Z,10.60
2022-12-27T23:33:45.248Z,11.97
2022-12-27T23:36:13.250Z,9.97
2022-12-27T23:38:41.328Z,8.50
2022-12-27T23:41:10.556Z,7.43
2022-12-27T23:43:55.797Z,9.13
2022-12-27T23:46:33.893Z,6.40
2022-12-27T23:49:03.253Z,8.00
2022-12-27T23:51:31.690Z,7.10
2022-12-27T23:53:59.025Z,5.07
2022-12-27T23:56:28.972Z,5.93
2022-12-27T23:58:58.016Z,4.87
